createdAt,value
2022-08-24T00:00:19.013Z,0.40
2022-08-24T00:00:36.198Z,0.50
2022-08-24T00:00:52.738Z,0.50
2022-08-24T00:01:10.692Z,0.55
2022-08-24T00:01:28.078Z,0.57
2022-08-24T00:01:44.659Z,0.60
2022-08-24T00:02:02.683Z,0.93
2022-08-24T00:02:19.497Z,0.93
2022-08-24T00:02:36.343Z,0.80
2022-08-24T00:02:53.714Z,0.80
2022-08-24T00:03:12.084Z,0.60
2022-08-24T00:03:30.827Z,0.50
2022-08-24T00:03:55.224Z,0.35
2022-08-24T00:04:16.157Z,0.30
2022-08-24T00:04:34.110Z,0.40
2022-08-24T00:04:50.858Z,0.34
2022-08-24T00:05:12.709Z,0.40
2022-08-24T00:05:32.313Z,0.50
2022-08-24T00:05:49.104Z,0.40
2022-08-24T00:06:07.043Z,0.55
2022-08-24T00:06:24.312Z,0.80
2022-08-24T00:06:40.916Z,0.50
2022-08-24T00:06:57.953Z,0.50
2022-08-24T00:07:27.018Z,0.40
2022-08-24T00:07:44.426Z,0.80
2022-08-24T00:08:01.163Z,0.55
2022-08-24T00:08:18.991Z,0.50
2022-08-24T00:08:36.118Z,0.50
2022-08-24T00:08:53.828Z,0.40
2022-08-24T00:09:10.474Z,0.57
2022-08-24T00:09:27.305Z,0.60
2022-08-24T00:09:45.027Z,0.60
2022-08-24T00:10:08.319Z,0.68
2022-08-24T00:10:25.285Z,0.52
2022-08-24T00:10:42.047Z,0.60
2022-08-24T00:10:59.802Z,0.73
2022-08-24T00:11:18.048Z,0.47
2022-08-24T00:11:34.921Z,0.30
2022-08-24T00:11:51.600Z,0.30
2022-08-24T00:12:09.946Z,0.50
2022-08-24T00:12:31.154Z,0.40
2022-08-24T00:12:50.123Z,0.30
2022-08-24T00:13:06.859Z,0.40
2022-08-24T00:13:23.475Z,0.60
2022-08-24T00:13:44.800Z,0.50
2022-08-24T00:14:01.995Z,0.47
2022-08-24T00:14:19.489Z,0.40
2022-08-24T00:14:37.532Z,0.40
2022-08-24T00:14:54.845Z,0.50
2022-08-24T00:15:12.715Z,0.50
2022-08-24T00:15:29.332Z,0.47
2022-08-24T00:15:46.282Z,0.70
2022-08-24T00:16:03.116Z,0.55
2022-08-24T00:16:21.179Z,0.60
2022-08-24T00:16:37.953Z,0.70
2022-08-24T00:16:54.688Z,0.50
2022-08-24T00:17:11.973Z,0.52
2022-08-24T00:17:28.659Z,0.60
2022-08-24T00:17:46.195Z,0.50
2022-08-24T00:18:02.886Z,0.50
2022-08-24T00:18:19.572Z,0.60
2022-08-24T00:18:36.285Z,0.45
2022-08-24T00:18:52.978Z,0.40
2022-08-24T00:19:11.483Z,0.50
2022-08-24T00:19:28.675Z,0.70
2022-08-24T00:19:45.237Z,0.60
2022-08-24T00:20:02.740Z,0.50
2022-08-24T00:20:20.095Z,0.43
2022-08-24T00:20:38.517Z,0.52
2022-08-24T00:20:57.824Z,0.52
2022-08-24T00:21:15.158Z,0.55
2022-08-24T00:21:31.783Z,0.63
2022-08-24T00:21:48.542Z,0.50
2022-08-24T00:22:05.229Z,0.57
2022-08-24T00:22:24.301Z,0.57
2022-08-24T00:22:41.473Z,0.60
2022-08-24T00:22:58.062Z,0.55
2022-08-24T00:23:15.332Z,0.65
2022-08-24T00:23:32.612Z,0.63
2022-08-24T00:23:50.288Z,0.40
2022-08-24T00:24:07.182Z,0.40
2022-08-24T00:24:23.986Z,0.40
2022-08-24T00:24:40.693Z,0.35
2022-08-24T00:24:57.498Z,0.40
2022-08-24T00:25:15.689Z,0.43
2022-08-24T00:25:32.489Z,0.30
2022-08-24T00:25:50.577Z,0.43
2022-08-24T00:26:07.381Z,0.52
2022-08-24T00:26:28.520Z,0.45
2022-08-24T00:26:47.285Z,0.60
2022-08-24T00:27:04.173Z,0.55
2022-08-24T00:27:21.312Z,0.60
2022-08-24T00:27:38.136Z,0.50
2022-08-24T00:27:55.153Z,0.47
2022-08-24T00:28:13.296Z,0.50
2022-08-24T00:28:30.396Z,0.60
2022-08-24T00:28:47.026Z,0.47
2022-08-24T00:29:07.394Z,0.50
2022-08-24T00:29:24.536Z,0.50
2022-08-24T00:29:42.505Z,0.50
2022-08-24T00:29:59.355Z,0.52
2022-08-24T00:30:16.886Z,0.40
2022-08-24T00:30:33.747Z,0.40
2022-08-24T00:30:50.590Z,0.50
2022-08-24T00:31:08.779Z,0.70
2022-08-24T00:31:25.587Z,0.52
2022-08-24T00:31:42.680Z,0.40
2022-08-24T00:31:59.368Z,0.52
2022-08-24T00:32:15.956Z,0.38
2022-08-24T00:32:33.688Z,0.43
2022-08-24T00:32:50.464Z,0.55
2022-08-24T00:33:08.267Z,0.50
2022-08-24T00:33:24.880Z,0.47
2022-08-24T00:33:41.608Z,0.52
2022-08-24T00:33:58.564Z,1.10
2022-08-24T00:34:17.773Z,1.30
2022-08-24T00:34:34.365Z,0.43
2022-08-24T00:34:58.991Z,0.50
2022-08-24T00:35:18.281Z,0.57
2022-08-24T00:35:36.358Z,0.50
2022-08-24T00:35:53.684Z,0.50
2022-08-24T00:36:10.262Z,0.60
2022-08-24T00:36:26.843Z,0.40
2022-08-24T00:36:44.060Z,0.43
2022-08-24T00:37:00.886Z,0.60
2022-08-24T00:37:18.874Z,0.50
2022-08-24T00:37:36.886Z,0.40
2022-08-24T00:37:53.721Z,0.52
2022-08-24T00:38:10.358Z,0.60
2022-08-24T00:38:28.058Z,0.63
2022-08-24T00:38:47.582Z,0.57
2022-08-24T00:39:04.256Z,0.40
2022-08-24T00:39:20.927Z,0.40
2022-08-24T00:39:37.478Z,0.57
2022-08-24T00:39:54.590Z,0.54
2022-08-24T00:40:15.310Z,0.55
2022-08-24T00:40:34.054Z,0.60
2022-08-24T00:40:50.791Z,0.90
2022-08-24T00:41:07.599Z,0.90
2022-08-24T00:41:24.308Z,0.77
2022-08-24T00:41:43.830Z,0.60
2022-08-24T00:42:00.413Z,0.38
2022-08-24T00:42:17.008Z,0.50
2022-08-24T00:42:33.730Z,0.68
2022-08-24T00:42:50.744Z,0.50
2022-08-24T00:43:10.050Z,0.40
2022-08-24T00:43:26.759Z,0.70
2022-08-24T00:43:50.928Z,0.73
2022-08-24T00:44:07.692Z,0.68
2022-08-24T00:44:26.533Z,0.60
2022-08-24T00:44:43.126Z,0.60
2022-08-24T00:44:59.900Z,0.43
2022-08-24T00:45:18.569Z,0.40
2022-08-24T00:45:40.717Z,0.52
2022-08-24T00:46:03.434Z,0.50
2022-08-24T00:46:23.119Z,0.57
2022-08-24T00:46:43.598Z,0.40
2022-08-24T00:47:01.999Z,0.60
2022-08-24T00:47:20.593Z,0.60
2022-08-24T00:47:41.815Z,0.50
2022-08-24T00:48:07.416Z,0.55
2022-08-24T00:48:27.509Z,0.50
2022-08-24T00:48:46.008Z,0.40
2022-08-24T00:49:05.019Z,0.47
2022-08-24T00:49:25.727Z,0.50
2022-08-24T00:49:44.265Z,0.65
2022-08-24T00:50:02.675Z,0.70
2022-08-24T00:50:22.185Z,0.70
2022-08-24T00:50:40.496Z,0.80
2022-08-24T00:50:59.490Z,0.50
2022-08-24T00:51:17.902Z,0.70
2022-08-24T00:51:36.974Z,0.65
2022-08-24T00:51:58.388Z,0.50
2022-08-24T00:52:19.418Z,0.60
2022-08-24T00:52:39.758Z,0.57
2022-08-24T00:52:57.985Z,0.70
2022-08-24T00:53:18.477Z,0.70
2022-08-24T00:53:37.606Z,0.55
2022-08-24T00:53:57.379Z,0.63
2022-08-24T00:54:15.911Z,0.75
2022-08-24T00:54:34.548Z,0.50
2022-08-24T00:54:54.684Z,0.40
2022-08-24T00:55:17.378Z,0.65
2022-08-24T00:55:35.062Z,0.70
2022-08-24T00:55:53.068Z,0.73
2022-08-24T00:56:12.930Z,0.52
2022-08-24T00:56:33.014Z,0.45
2022-08-24T00:56:51.919Z,0.60
2022-08-24T00:57:10.697Z,0.60
2022-08-24T00:57:29.229Z,0.70
2022-08-24T00:57:48.348Z,0.65
2022-08-24T00:58:12.863Z,0.90
2022-08-24T00:58:36.473Z,0.50
2022-08-24T00:58:57.133Z,0.50
2022-08-24T00:59:15.518Z,0.55
2022-08-24T00:59:35.299Z,1.10
2022-08-24T00:59:54.261Z,1.08
2022-08-24T01:00:12.647Z,0.70
2022-08-24T01:00:32.041Z,0.90
2022-08-24T01:00:50.687Z,1.08
2022-08-24T01:01:08.721Z,0.90
2022-08-24T01:01:27.379Z,0.80
2022-08-24T01:01:44.455Z,0.60
2022-08-24T01:02:05.529Z,0.63
2022-08-24T01:02:32.999Z,0.70
2022-08-24T01:02:52.532Z,0.60
2022-08-24T01:03:09.335Z,0.70
2022-08-24T01:03:26.741Z,0.80
2022-08-24T01:03:44.077Z,0.60
2022-08-24T01:04:01.038Z,0.50
2022-08-24T01:04:19.958Z,0.50
2022-08-24T01:04:40.595Z,0.32
2022-08-24T01:04:58.379Z,0.50
2022-08-24T01:05:16.353Z,0.90
2022-08-24T01:05:33.942Z,0.95
2022-08-24T01:05:50.560Z,0.80
2022-08-24T01:06:07.346Z,0.70
2022-08-24T01:06:24.950Z,0.80
2022-08-24T01:06:41.620Z,0.93
2022-08-24T01:06:59.156Z,0.70
2022-08-24T01:07:15.937Z,0.70
2022-08-24T01:07:33.315Z,0.80
2022-08-24T01:07:52.380Z,0.70
2022-08-24T01:08:10.018Z,0.50
2022-08-24T01:08:26.703Z,0.47
2022-08-24T01:08:45.712Z,0.60
2022-08-24T01:09:03.266Z,0.52
2022-08-24T01:09:20.900Z,0.50
2022-08-24T01:09:37.621Z,0.90
2022-08-24T01:09:56.083Z,1.00
2022-08-24T01:10:14.975Z,0.60
2022-08-24T01:10:34.046Z,0.65
2022-08-24T01:10:54.565Z,0.77
2022-08-24T01:11:13.835Z,0.90
2022-08-24T01:11:34.019Z,0.85
2022-08-24T01:11:51.044Z,0.93
2022-08-24T01:12:09.732Z,0.82
2022-08-24T01:12:28.455Z,0.77
2022-08-24T01:12:48.204Z,0.75
2022-08-24T01:13:17.089Z,0.90
2022-08-24T01:13:34.505Z,0.60
2022-08-24T01:13:53.576Z,0.52
2022-08-24T01:14:10.244Z,0.65
2022-08-24T01:14:26.924Z,0.70
2022-08-24T01:14:43.805Z,0.70
2022-08-24T01:15:02.272Z,0.63
2022-08-24T01:15:22.690Z,0.73
2022-08-24T01:15:40.531Z,0.70
2022-08-24T01:15:59.197Z,0.70
2022-08-24T01:16:37.393Z,0.73
2022-08-24T01:17:13.302Z,0.82
2022-08-24T01:17:49.443Z,0.60
2022-08-24T01:18:25.287Z,0.73
2022-08-24T01:18:50.763Z,0.63
2022-08-24T01:19:11.970Z,0.77
2022-08-24T01:19:33.993Z,0.70
2022-08-24T01:19:51.475Z,0.70
2022-08-24T01:20:09.297Z,0.60
2022-08-24T01:20:26.866Z,0.60
2022-08-24T01:20:45.115Z,0.50
2022-08-24T01:21:04.299Z,0.76
2022-08-24T01:21:21.967Z,0.77
2022-08-24T01:21:44.429Z,0.57
2022-08-24T01:22:06.943Z,0.60
2022-08-24T01:22:34.687Z,0.45
2022-08-24T01:22:56.226Z,0.60
2022-08-24T01:23:16.401Z,0.88
2022-08-24T01:23:38.058Z,0.65
2022-08-24T01:23:55.965Z,0.65
2022-08-24T01:24:13.968Z,0.80
2022-08-24T01:24:30.571Z,0.85
2022-08-24T01:24:47.522Z,0.64
2022-08-24T01:25:05.404Z,0.77
2022-08-24T01:25:22.597Z,0.95
2022-08-24T01:25:42.642Z,0.85
2022-08-24T01:26:00.354Z,0.70
2022-08-24T01:26:19.789Z,0.55
2022-08-24T01:26:39.457Z,0.68
2022-08-24T01:26:56.471Z,0.75
2022-08-24T01:27:15.379Z,0.70
2022-08-24T01:27:34.968Z,0.80
2022-08-24T01:27:52.270Z,0.70
2022-08-24T01:28:11.492Z,0.70
2022-08-24T01:28:28.229Z,0.80
2022-08-24T01:28:46.747Z,0.80
2022-08-24T01:29:06.983Z,1.10
2022-08-24T01:29:27.573Z,0.98
2022-08-24T01:29:45.686Z,0.85
2022-08-24T01:30:04.905Z,0.80
2022-08-24T01:30:30.660Z,0.73
2022-08-24T01:30:53.318Z,0.88
2022-08-24T01:31:10.187Z,0.57
2022-08-24T01:31:26.855Z,0.77
2022-08-24T01:31:43.650Z,0.90
2022-08-24T01:32:01.623Z,0.55
2022-08-24T01:32:19.537Z,0.50
2022-08-24T01:32:36.379Z,0.60
2022-08-24T01:32:53.797Z,0.80
2022-08-24T01:33:11.834Z,0.93
2022-08-24T01:33:31.581Z,0.90
2022-08-24T01:33:49.800Z,0.80
2022-08-24T01:34:06.479Z,0.75
2022-08-24T01:34:23.076Z,0.60
2022-08-24T01:34:40.651Z,0.70
2022-08-24T01:34:57.652Z,0.60
2022-08-24T01:35:15.312Z,0.40
2022-08-24T01:35:32.374Z,0.50
2022-08-24T01:35:49.101Z,0.60
2022-08-24T01:36:18.264Z,0.75
2022-08-24T01:36:38.021Z,0.80
2022-08-24T01:36:56.185Z,0.75
2022-08-24T01:37:12.821Z,0.77
2022-08-24T01:37:32.987Z,0.80
2022-08-24T01:37:50.562Z,0.85
2022-08-24T01:38:09.507Z,0.93
2022-08-24T01:38:26.395Z,0.75
2022-08-24T01:38:44.727Z,0.88
2022-08-24T01:39:04.370Z,1.08
2022-08-24T01:39:24.399Z,0.80
2022-08-24T01:39:44.818Z,0.85
2022-08-24T01:40:06.220Z,0.73
2022-08-24T01:40:26.368Z,0.45
2022-08-24T01:40:46.300Z,0.50
2022-08-24T01:41:05.670Z,0.90
2022-08-24T01:41:25.809Z,0.80
2022-08-24T01:41:45.443Z,0.64
2022-08-24T01:42:02.285Z,0.60
2022-08-24T01:42:19.078Z,0.52
2022-08-24T01:42:36.694Z,0.70
2022-08-24T01:42:53.272Z,0.70
2022-08-24T01:43:12.706Z,0.77
2022-08-24T01:43:30.127Z,1.10
2022-08-24T01:43:48.972Z,0.75
2022-08-24T01:44:05.673Z,1.00
2022-08-24T01:44:23.783Z,1.10
2022-08-24T01:44:41.697Z,0.85
2022-08-24T01:44:58.497Z,0.90
2022-08-24T01:45:15.464Z,0.84
2022-08-24T01:45:33.361Z,0.80
2022-08-24T01:45:50.252Z,0.80
2022-08-24T01:46:07.566Z,0.77
2022-08-24T01:46:24.209Z,0.80
2022-08-24T01:46:43.106Z,0.50
2022-08-24T01:47:02.266Z,0.70
2022-08-24T01:47:24.382Z,1.10
2022-08-24T01:47:41.357Z,0.88
2022-08-24T01:47:58.481Z,0.80
2022-08-24T01:48:15.446Z,0.80
2022-08-24T01:48:41.361Z,0.82
2022-08-24T01:48:58.293Z,0.63
2022-08-24T01:49:15.447Z,0.70
2022-08-24T01:49:33.792Z,0.75
2022-08-24T01:49:50.567Z,0.80
2022-08-24T01:50:10.652Z,0.75
2022-08-24T01:50:29.293Z,0.60
2022-08-24T01:50:46.294Z,0.70
2022-08-24T01:51:03.042Z,0.60
2022-08-24T01:51:21.204Z,0.68
2022-08-24T01:51:38.131Z,0.70
2022-08-24T01:51:55.206Z,0.63
2022-08-24T01:52:14.014Z,0.55
2022-08-24T01:52:48.752Z,0.60
2022-08-24T01:53:07.837Z,0.77
2022-08-24T01:53:24.493Z,0.70
2022-08-24T01:53:42.180Z,0.70
2022-08-24T01:54:02.828Z,0.60
2022-08-24T01:54:19.571Z,0.70
2022-08-24T01:54:36.229Z,0.80
2022-08-24T01:54:53.474Z,0.60
2022-08-24T01:55:11.460Z,0.60
2022-08-24T01:55:29.672Z,0.60
2022-08-24T01:55:46.572Z,0.70
2022-08-24T01:56:03.454Z,0.75
2022-08-24T01:56:20.253Z,0.60
2022-08-24T01:56:38.569Z,0.65
2022-08-24T01:56:55.441Z,0.80
2022-08-24T01:57:16.287Z,0.85
2022-08-24T01:57:35.072Z,0.80
2022-08-24T01:57:52.111Z,0.70
2022-08-24T01:58:08.765Z,0.65
2022-08-24T01:58:25.408Z,0.80
2022-08-24T01:58:43.562Z,0.70
2022-08-24T01:59:01.308Z,0.73
2022-08-24T01:59:19.394Z,0.80
2022-08-24T01:59:36.240Z,0.60
2022-08-24T01:59:53.126Z,0.70
2022-08-24T02:00:11.134Z,0.82
2022-08-24T02:00:29.637Z,0.90
2022-08-24T02:00:47.250Z,0.68
2022-08-24T02:01:04.276Z,0.77
2022-08-24T02:01:21.106Z,0.80
2022-08-24T02:01:40.068Z,0.70
2022-08-24T02:02:00.045Z,0.70
2022-08-24T02:02:20.072Z,0.63
2022-08-24T02:02:37.353Z,0.60
2022-08-24T02:02:56.493Z,0.77
2022-08-24T02:03:13.876Z,0.52
2022-08-24T02:03:32.143Z,0.45
2022-08-24T02:03:51.907Z,0.60
2022-08-24T02:04:11.376Z,0.50
2022-08-24T02:04:35.264Z,0.70
2022-08-24T02:04:51.910Z,0.85
2022-08-24T02:05:09.831Z,0.65
2022-08-24T02:05:27.134Z,0.60
2022-08-24T02:05:44.870Z,0.60
2022-08-24T02:06:05.458Z,0.50
2022-08-24T02:06:22.290Z,0.80
2022-08-24T02:06:39.234Z,0.73
2022-08-24T02:06:59.432Z,0.80
2022-08-24T02:07:18.359Z,0.60
2022-08-24T02:07:35.247Z,0.60
2022-08-24T02:07:52.205Z,0.45
2022-08-24T02:08:10.960Z,0.50
2022-08-24T02:08:28.858Z,0.50
2022-08-24T02:08:45.473Z,0.50
2022-08-24T02:09:04.026Z,0.55
2022-08-24T02:09:21.890Z,0.63
2022-08-24T02:09:39.005Z,0.57
2022-08-24T02:09:56.499Z,0.70
2022-08-24T02:10:15.464Z,0.75
2022-08-24T02:10:32.743Z,0.65
2022-08-24T02:10:56.822Z,0.55
2022-08-24T02:11:14.218Z,0.60
2022-08-24T02:11:32.229Z,0.60
2022-08-24T02:11:49.121Z,0.77
2022-08-24T02:12:06.542Z,0.70
2022-08-24T02:12:24.448Z,0.52
2022-08-24T02:12:42.205Z,0.70
2022-08-24T02:13:00.350Z,0.75
2022-08-24T02:13:17.153Z,0.70
2022-08-24T02:13:33.763Z,0.70
2022-08-24T02:13:50.363Z,0.57
2022-08-24T02:14:09.139Z,0.70
2022-08-24T02:14:26.156Z,0.77
2022-08-24T02:14:48.680Z,0.82
2022-08-24T02:15:06.196Z,0.75
2022-08-24T02:15:23.836Z,0.60
2022-08-24T02:15:40.615Z,0.80
2022-08-24T02:16:01.103Z,0.88
2022-08-24T02:16:20.741Z,0.98
2022-08-24T02:16:38.478Z,0.63
2022-08-24T02:16:56.429Z,0.65
2022-08-24T02:17:16.464Z,0.93
2022-08-24T02:17:33.313Z,1.00
2022-08-24T02:17:51.082Z,0.70
2022-08-24T02:18:08.455Z,0.85
2022-08-24T02:18:33.364Z,0.90
2022-08-24T02:18:50.145Z,0.80
2022-08-24T02:19:08.617Z,0.52
2022-08-24T02:19:26.565Z,0.55
2022-08-24T02:19:43.981Z,0.68
2022-08-24T02:20:01.653Z,0.70
2022-08-24T02:20:19.002Z,0.80
2022-08-24T02:20:36.761Z,0.73
2022-08-24T02:20:56.385Z,0.82
2022-08-24T02:21:13.832Z,0.80
2022-08-24T02:21:30.406Z,0.70
2022-08-24T02:21:47.100Z,0.80
2022-08-24T02:22:04.112Z,0.80
2022-08-24T02:22:21.744Z,0.60
2022-08-24T02:22:38.787Z,0.50
2022-08-24T02:22:57.014Z,0.60
2022-08-24T02:23:14.504Z,0.60
2022-08-24T02:23:32.445Z,0.60
2022-08-24T02:23:50.254Z,0.63
2022-08-24T02:24:08.760Z,0.80
2022-08-24T02:24:25.541Z,1.10
2022-08-24T02:24:42.620Z,1.00
2022-08-24T02:24:59.388Z,0.75
2022-08-24T02:25:17.078Z,0.60
2022-08-24T02:25:34.778Z,0.60
2022-08-24T02:25:52.168Z,0.60
2022-08-24T02:26:10.041Z,1.10
2022-08-24T02:26:31.826Z,0.88
2022-08-24T02:26:49.456Z,0.80
2022-08-24T02:27:07.105Z,0.60
2022-08-24T02:27:25.597Z,0.60
2022-08-24T02:27:42.686Z,0.82
2022-08-24T02:28:01.695Z,0.80
2022-08-24T02:28:20.273Z,0.60
2022-08-24T02:28:39.275Z,0.70
2022-08-24T02:28:57.027Z,0.60
2022-08-24T02:29:16.306Z,0.60
2022-08-24T02:29:33.278Z,0.65
2022-08-24T02:29:50.195Z,0.50
2022-08-24T02:30:07.671Z,0.32
2022-08-24T02:30:24.695Z,0.40
2022-08-24T02:30:42.416Z,0.50
2022-08-24T02:30:59.099Z,0.50
2022-08-24T02:31:15.852Z,0.60
2022-08-24T02:31:34.541Z,0.65
2022-08-24T02:31:52.689Z,0.60
2022-08-24T02:32:09.566Z,0.55
2022-08-24T02:32:26.331Z,0.55
2022-08-24T02:32:43.326Z,0.40
2022-08-24T02:33:00.222Z,0.60
2022-08-24T02:33:17.205Z,0.77
2022-08-24T02:33:35.720Z,0.70
2022-08-24T02:33:52.285Z,0.70
2022-08-24T02:34:09.232Z,0.80
2022-08-24T02:34:26.035Z,0.73
2022-08-24T02:34:43.796Z,0.80
2022-08-24T02:35:00.675Z,0.75
2022-08-24T02:35:17.971Z,0.57
2022-08-24T02:35:35.661Z,0.50
2022-08-24T02:35:54.308Z,0.52
2022-08-24T02:36:26.082Z,0.47
2022-08-24T02:36:46.787Z,0.60
2022-08-24T02:37:04.544Z,0.50
2022-08-24T02:37:21.171Z,0.50
2022-08-24T02:37:43.439Z,0.60
2022-08-24T02:38:02.425Z,0.70
2022-08-24T02:38:21.389Z,0.90
2022-08-24T02:38:39.787Z,0.82
2022-08-24T02:39:01.033Z,0.80
2022-08-24T02:39:19.136Z,0.85
2022-08-24T02:39:37.543Z,0.80
2022-08-24T02:39:57.266Z,0.60
2022-08-24T02:40:16.937Z,0.82
2022-08-24T02:40:33.884Z,0.70
2022-08-24T02:40:50.667Z,0.55
2022-08-24T02:41:07.565Z,0.65
2022-08-24T02:41:25.565Z,0.80
2022-08-24T02:41:42.299Z,0.77
2022-08-24T02:42:00.163Z,1.00
2022-08-24T02:42:16.753Z,0.98
2022-08-24T02:42:33.406Z,0.70
2022-08-24T02:42:50.152Z,0.76
2022-08-24T02:43:06.760Z,0.70
2022-08-24T02:43:25.785Z,0.52
2022-08-24T02:43:42.550Z,0.90
2022-08-24T02:43:59.645Z,0.60
2022-08-24T02:44:16.530Z,0.80
2022-08-24T02:44:33.295Z,0.90
2022-08-24T02:44:49.850Z,0.60
2022-08-24T02:45:11.827Z,0.52
2022-08-24T02:45:28.562Z,0.80
2022-08-24T02:45:50.054Z,1.10
2022-08-24T02:46:07.536Z,0.98
2022-08-24T02:46:32.177Z,0.77
2022-08-24T02:46:49.736Z,0.80
2022-08-24T02:47:07.685Z,0.80
2022-08-24T02:47:33.629Z,0.82
2022-08-24T02:47:59.086Z,0.75
2022-08-24T02:48:15.817Z,0.70
2022-08-24T02:48:32.521Z,0.70
2022-08-24T02:48:53.008Z,0.50
2022-08-24T02:49:26.873Z,0.88
2022-08-24T02:49:44.733Z,0.82
2022-08-24T02:50:01.862Z,0.55
2022-08-24T02:50:18.951Z,0.50
2022-08-24T02:50:38.599Z,0.55
2022-08-24T02:50:55.969Z,0.90
2022-08-24T02:51:19.724Z,0.77
2022-08-24T02:51:42.202Z,0.68
2022-08-24T02:52:01.115Z,0.55
2022-08-24T02:52:17.915Z,0.63
2022-08-24T02:52:35.843Z,0.82
2022-08-24T02:52:52.675Z,0.85
2022-08-24T02:53:12.126Z,0.90
2022-08-24T02:53:28.781Z,0.60
2022-08-24T02:53:45.379Z,0.65
2022-08-24T02:54:02.767Z,0.77
2022-08-24T02:54:23.588Z,0.80
2022-08-24T02:54:42.020Z,0.80
2022-08-24T02:54:58.597Z,1.10
2022-08-24T02:55:16.539Z,1.13
2022-08-24T02:55:39.362Z,0.80
2022-08-24T02:55:57.046Z,1.00
2022-08-24T02:56:13.686Z,1.30
2022-08-24T02:56:30.491Z,1.00
2022-08-24T02:56:47.686Z,0.65
2022-08-24T02:57:04.428Z,0.68
2022-08-24T02:57:22.192Z,0.90
2022-08-24T02:57:38.918Z,0.90
2022-08-24T02:57:55.886Z,0.80
2022-08-24T02:58:13.818Z,0.80
2022-08-24T02:58:30.570Z,0.90
2022-08-24T02:58:47.505Z,0.90
2022-08-24T02:59:09.823Z,0.95
2022-08-24T02:59:26.400Z,0.90
2022-08-24T02:59:43.187Z,0.70
2022-08-24T02:59:59.815Z,0.82
2022-08-24T03:00:19.874Z,1.05
2022-08-24T03:00:47.950Z,0.77
2022-08-24T03:01:13.621Z,0.68
2022-08-24T03:01:34.705Z,0.95
2022-08-24T03:01:51.576Z,1.00
2022-08-24T03:02:09.493Z,0.63
2022-08-24T03:02:27.705Z,0.47
2022-08-24T03:02:45.654Z,0.68
2022-08-24T03:03:02.830Z,0.60
2022-08-24T03:03:19.658Z,0.93
2022-08-24T03:03:36.686Z,0.88
2022-08-24T03:03:54.309Z,0.50
2022-08-24T03:04:11.749Z,0.45
2022-08-24T03:04:28.504Z,0.57
2022-08-24T03:04:45.187Z,0.70
2022-08-24T03:05:07.273Z,0.80
2022-08-24T03:05:26.338Z,0.90
2022-08-24T03:05:43.630Z,0.68
2022-08-24T03:06:00.314Z,0.70
2022-08-24T03:06:17.397Z,0.63
2022-08-24T03:06:34.089Z,0.68
2022-08-24T03:06:52.691Z,0.75
2022-08-24T03:07:09.267Z,0.77
2022-08-24T03:07:26.073Z,0.63
2022-08-24T03:07:43.380Z,0.63
2022-08-24T03:08:00.737Z,0.80
2022-08-24T03:08:18.670Z,0.80
2022-08-24T03:08:36.789Z,0.64
2022-08-24T03:08:56.662Z,0.80
2022-08-24T03:09:14.402Z,0.80
2022-08-24T03:09:32.578Z,0.90
2022-08-24T03:09:49.268Z,0.80
2022-08-24T03:10:07.660Z,0.70
2022-08-24T03:10:24.404Z,0.77
2022-08-24T03:10:41.124Z,0.82
2022-08-24T03:11:00.455Z,0.93
2022-08-24T03:11:17.662Z,0.80
2022-08-24T03:11:35.412Z,0.60
2022-08-24T03:11:52.079Z,0.50
2022-08-24T03:12:08.979Z,0.52
2022-08-24T03:12:25.771Z,0.52
2022-08-24T03:12:42.380Z,0.60
2022-08-24T03:13:01.454Z,0.52
2022-08-24T03:13:18.383Z,0.78
2022-08-24T03:13:36.025Z,0.70
2022-08-24T03:13:52.654Z,0.60
2022-08-24T03:14:09.358Z,0.98
2022-08-24T03:14:27.934Z,0.80
2022-08-24T03:14:44.993Z,0.70
2022-08-24T03:15:02.329Z,1.08
2022-08-24T03:15:22.422Z,0.85
2022-08-24T03:15:39.273Z,0.68
2022-08-24T03:15:57.094Z,0.75
2022-08-24T03:16:13.970Z,0.82
2022-08-24T03:16:31.514Z,1.00
2022-08-24T03:16:48.276Z,0.73
2022-08-24T03:17:05.231Z,0.60
2022-08-24T03:17:24.066Z,0.70
2022-08-24T03:17:41.131Z,0.80
2022-08-24T03:17:59.996Z,0.77
2022-08-24T03:18:16.803Z,0.70
2022-08-24T03:18:33.743Z,0.77
2022-08-24T03:18:53.992Z,0.80
2022-08-24T03:19:13.059Z,1.00
2022-08-24T03:19:32.088Z,0.80
2022-08-24T03:19:48.886Z,0.55
2022-08-24T03:20:07.129Z,0.63
2022-08-24T03:20:24.597Z,0.90
2022-08-24T03:20:41.301Z,0.95
2022-08-24T03:20:59.691Z,0.90
2022-08-24T03:21:16.474Z,0.70
2022-08-24T03:21:34.187Z,0.60
2022-08-24T03:21:50.828Z,0.60
2022-08-24T03:22:08.639Z,0.50
2022-08-24T03:22:25.240Z,0.50
2022-08-24T03:22:41.855Z,0.50
2022-08-24T03:22:58.936Z,0.52
2022-08-24T03:23:15.750Z,0.70
2022-08-24T03:23:34.437Z,0.80
2022-08-24T03:23:52.968Z,0.80
2022-08-24T03:24:10.334Z,0.75
2022-08-24T03:24:27.084Z,1.00
2022-08-24T03:24:46.401Z,0.90
2022-08-24T03:25:03.783Z,0.80
2022-08-24T03:25:24.496Z,0.93
2022-08-24T03:25:41.444Z,0.80
2022-08-24T03:25:58.357Z,0.80
2022-08-24T03:26:15.331Z,0.80
2022-08-24T03:26:32.165Z,0.90
2022-08-24T03:26:50.333Z,0.80
2022-08-24T03:27:07.159Z,0.80
2022-08-24T03:27:25.327Z,0.80
2022-08-24T03:27:42.132Z,0.77
2022-08-24T03:27:59.740Z,0.80
2022-08-24T03:28:17.564Z,0.75
2022-08-24T03:28:35.503Z,0.73
2022-08-24T03:28:53.340Z,0.88
2022-08-24T03:29:10.553Z,1.08
2022-08-24T03:29:28.434Z,1.13
2022-08-24T03:29:50.589Z,0.93
2022-08-24T03:30:08.437Z,1.02
2022-08-24T03:30:25.219Z,0.77
2022-08-24T03:30:46.807Z,0.75
2022-08-24T03:31:06.950Z,0.70
2022-08-24T03:31:23.586Z,0.73
2022-08-24T03:31:40.352Z,0.98
2022-08-24T03:31:57.342Z,1.02
2022-08-24T03:32:16.025Z,1.00
2022-08-24T03:32:32.811Z,0.60
2022-08-24T03:32:50.978Z,0.80
2022-08-24T03:33:07.652Z,1.13
2022-08-24T03:33:24.811Z,1.27
2022-08-24T03:33:41.499Z,1.08
2022-08-24T03:33:58.370Z,1.02
2022-08-24T03:34:16.174Z,0.82
2022-08-24T03:34:32.825Z,1.05
2022-08-24T03:34:49.532Z,1.20
2022-08-24T03:35:08.649Z,0.93
2022-08-24T03:35:25.406Z,0.93
2022-08-24T03:35:42.241Z,1.15
2022-08-24T03:36:00.807Z,1.05
2022-08-24T03:36:18.596Z,0.90
2022-08-24T03:36:35.198Z,1.00
2022-08-24T03:36:51.962Z,1.00
2022-08-24T03:37:08.760Z,1.00
2022-08-24T03:37:25.568Z,0.77
2022-08-24T03:37:42.415Z,0.88
2022-08-24T03:38:00.387Z,0.92
2022-08-24T03:38:18.466Z,1.00
2022-08-24T03:38:35.334Z,1.05
2022-08-24T03:38:52.041Z,0.95
2022-08-24T03:39:09.176Z,0.98
2022-08-24T03:39:25.819Z,1.00
2022-08-24T03:39:47.783Z,0.88
2022-08-24T03:40:05.761Z,1.06
2022-08-24T03:40:24.339Z,1.30
2022-08-24T03:40:44.262Z,1.02
2022-08-24T03:41:01.360Z,1.00
2022-08-24T03:41:17.965Z,0.82
2022-08-24T03:41:35.384Z,1.00
2022-08-24T03:41:54.980Z,1.10
2022-08-24T03:42:12.543Z,1.15
2022-08-24T03:42:29.305Z,1.08
2022-08-24T03:42:46.188Z,0.75
2022-08-24T03:43:06.726Z,1.23
2022-08-24T03:43:41.886Z,1.30
2022-08-24T03:43:59.453Z,0.90
2022-08-24T03:44:19.170Z,0.80
2022-08-24T03:44:37.979Z,1.20
2022-08-24T03:44:54.560Z,1.17
2022-08-24T03:45:11.871Z,1.17
2022-08-24T03:45:30.292Z,1.00
2022-08-24T03:45:48.061Z,0.88
2022-08-24T03:46:06.184Z,0.88
2022-08-24T03:46:25.362Z,0.70
2022-08-24T03:46:42.690Z,0.80
2022-08-24T03:46:59.792Z,0.80
2022-08-24T03:47:20.170Z,0.85
2022-08-24T03:47:36.879Z,1.00
2022-08-24T03:47:55.901Z,1.10
2022-08-24T03:48:13.454Z,1.15
2022-08-24T03:48:31.612Z,1.10
2022-08-24T03:48:48.984Z,1.00
2022-08-24T03:49:10.748Z,1.15
2022-08-24T03:49:27.586Z,1.00
2022-08-24T03:49:44.942Z,1.10
2022-08-24T03:50:01.671Z,1.00
2022-08-24T03:50:20.759Z,0.80
2022-08-24T03:50:37.398Z,0.80
2022-08-24T03:50:55.317Z,0.96
2022-08-24T03:51:13.789Z,1.10
2022-08-24T03:51:30.783Z,0.98
2022-08-24T03:51:47.650Z,0.82
2022-08-24T03:52:04.711Z,0.88
2022-08-24T03:52:22.597Z,0.95
2022-08-24T03:52:42.053Z,1.10
2022-08-24T03:52:59.081Z,1.00
2022-08-24T03:53:16.654Z,0.98
2022-08-24T03:53:33.465Z,1.10
2022-08-24T03:53:55.234Z,0.80
2022-08-24T03:54:14.204Z,0.95
2022-08-24T03:54:31.314Z,1.10
2022-08-24T03:54:49.333Z,1.20
2022-08-24T03:55:06.569Z,0.90
2022-08-24T03:55:24.613Z,0.82
2022-08-24T03:55:41.242Z,0.70
2022-08-24T03:55:58.398Z,0.80
2022-08-24T03:56:15.043Z,0.90
2022-08-24T03:56:32.522Z,0.82
2022-08-24T03:56:50.571Z,0.93
2022-08-24T03:57:07.631Z,1.02
2022-08-24T03:57:25.421Z,0.93
2022-08-24T03:57:42.187Z,0.88
2022-08-24T03:57:59.945Z,0.88
2022-08-24T03:58:17.461Z,1.00
2022-08-24T03:58:35.611Z,0.82
2022-08-24T03:58:52.507Z,1.10
2022-08-24T03:59:10.952Z,1.10
2022-08-24T03:59:31.744Z,1.15
2022-08-24T03:59:49.469Z,1.15
2022-08-24T04:00:08.723Z,0.90
2022-08-24T04:00:31.173Z,0.68
2022-08-24T04:00:50.129Z,0.60
2022-08-24T04:01:07.639Z,0.95
2022-08-24T04:01:24.410Z,1.00
2022-08-24T04:01:43.280Z,0.98
2022-08-24T04:02:01.282Z,0.93
2022-08-24T04:02:18.004Z,1.00
2022-08-24T04:02:34.816Z,1.05
2022-08-24T04:02:51.851Z,1.30
2022-08-24T04:03:11.570Z,1.00
2022-08-24T04:03:28.249Z,0.70
2022-08-24T04:03:51.022Z,0.80
2022-08-24T04:04:08.251Z,0.90
2022-08-24T04:04:26.401Z,1.00
2022-08-24T04:04:43.115Z,1.02